sensor_id;sensor_type;location;lat;lon;timestamp;P1;durP1;ratioP1;P2;durP2;ratioP2
56712;SDS011;42589;45.536;9.032;2022-11-13T00:01:23;45.78;;;34.47;;
56712;SDS011;42589;45.536;9.032;2022-11-13T00:04:24;44.20;;;34.90;;
56712;SDS011;42589;45.536;9.032;2022-11-13T00:07:26;43.35;;;33.70;;
56712;SDS011;42589;45.536;9.032;2022-11-13T00:10:27;40.45;;;33.08;;
56712;SDS011;42589;45.536;9.032;2022-11-13T00:13:27;37.08;;;30.58;;
56712;SDS011;42589;45.536;9.032;2022-11-13T00:16:28;36.42;;;29.85;;
56712;SDS011;42589;45.536;9.032;2022-11-13T00:19:28;36.85;;;27.55;;
56712;SDS011;42589;45.536;9.032;2022-11-13T00:22:30;37.22;;;28.27;;
56712;SDS011;42589;45.536;9.032;2022-11-13T00:25:30;35.55;;;26.73;;
56712;SDS011;42589;45.536;9.032;2022-11-13T00:28:32;32.58;;;26.15;;
56712;SDS011;42589;45.536;9.032;2022-11-13T00:31:32;32.50;;;25.15;;
56712;SDS011;42589;45.536;9.032;2022-11-13T00:34:33;34.28;;;26.65;;
56712;SDS011;42589;45.536;9.032;2022-11-13T00:37:34;32.42;;;24.48;;
56712;SDS011;42589;45.536;9.032;2022-11-13T00:40:35;32.15;;;24.70;;
56712;SDS011;42589;45.536;9.032;2022-11-13T00:43:35;30.33;;;22.65;;
56712;SDS011;42589;45.536;9.032;2022-11-13T00:46:36;30.35;;;22.35;;
56712;SDS011;42589;45.536;9.032;2022-11-13T00:49:36;30.52;;;21.92;;
56712;SDS011;42589;45.536;9.032;2022-11-13T00:52:37;30.48;;;22.52;;
56712;SDS011;42589;45.536;9.032;2022-11-13T00:55:37;26.40;;;20.57;;
56712;SDS011;42589;45.536;9.032;2022-11-13T00:58:38;27.92;;;20.27;;
56712;SDS011;42589;45.536;9.032;2022-11-13T01:01:39;27.48;;;19.50;;
56712;SDS011;42589;45.536;9.032;2022-11-13T01:04:39;26.83;;;20.35;;
56712;SDS011;42589;45.536;9.032;2022-11-13T01:07:40;27.45;;;19.45;;
56712;SDS011;42589;45.536;9.032;2022-11-13T01:10:43;25.67;;;19.17;;
56712;SDS011;42589;45.536;9.032;2022-11-13T01:13:44;25.05;;;19.63;;
56712;SDS011;42589;45.536;9.032;2022-11-13T01:16:49;26.73;;;19.15;;
56712;SDS011;42589;45.536;9.032;2022-11-13T01:19:50;23.92;;;18.00;;
56712;SDS011;42589;45.536;9.032;2022-11-13T01:22:50;24.20;;;18.20;;
56712;SDS011;42589;45.536;9.032;2022-11-13T01:25:51;24.42;;;17.10;;
56712;SDS011;42589;45.536;9.032;2022-11-13T01:28:53;21.45;;;17.05;;
56712;SDS011;42589;45.536;9.032;2022-11-13T01:31:54;23.75;;;18.15;;
56712;SDS011;42589;45.536;9.032;2022-11-13T01:34:55;22.95;;;17.05;;
56712;SDS011;42589;45.536;9.032;2022-11-13T01:37:55;24.35;;;17.10;;
56712;SDS011;42589;45.536;9.032;2022-11-13T01:40:56;22.33;;;16.20;;
56712;SDS011;42589;45.536;9.032;2022-11-13T01:43:57;22.42;;;16.90;;
56712;SDS011;42589;45.536;9.032;2022-11-13T01:46:57;18.83;;;15.77;;
56712;SDS011;42589;45.536;9.032;2022-11-13T01:49:59;21.42;;;15.82;;
56712;SDS011;42589;45.536;9.032;2022-11-13T01:53:00;22.90;;;15.55;;
56712;SDS011;42589;45.536;9.032;2022-11-13T01:56:02;21.83;;;15.98;;
56712;SDS011;42589;45.536;9.032;2022-11-13T01:59:07;22.90;;;15.85;;
56712;SDS011;42589;45.536;9.032;2022-11-13T02:02:08;18.65;;;14.38;;
56712;SDS011;42589;45.536;9.032;2022-11-13T02:05:09;20.23;;;14.52;;
56712;SDS011;42589;45.536;9.032;2022-11-13T02:08:10;19.92;;;13.85;;
56712;SDS011;42589;45.536;9.032;2022-11-13T02:11:11;17.25;;;13.55;;
56712;SDS011;42589;45.536;9.032;2022-11-13T02:14:12;18.65;;;13.00;;
56712;SDS011;42589;45.536;9.032;2022-11-13T02:17:22;17.88;;;13.35;;
56712;SDS011;42589;45.536;9.032;2022-11-13T02:21:11;17.48;;;12.95;;
56712;SDS011;42589;45.536;9.032;2022-11-13T02:23:49;17.30;;;12.23;;
56712;SDS011;42589;45.536;9.032;2022-11-13T02:26:53;15.70;;;12.52;;
56712;SDS011;42589;45.536;9.032;2022-11-13T02:29:56;14.73;;;11.75;;
56712;SDS011;42589;45.536;9.032;2022-11-13T02:32:56;17.83;;;12.90;;
56712;SDS011;42589;45.536;9.032;2022-11-13T02:35:57;16.90;;;12.02;;
56712;SDS011;42589;45.536;9.032;2022-11-13T02:38:59;16.92;;;12.18;;
56712;SDS011;42589;45.536;9.032;2022-11-13T02:42:00;17.80;;;12.40;;
56712;SDS011;42589;45.536;9.032;2022-11-13T02:45:04;17.83;;;11.77;;
56712;SDS011;42589;45.536;9.032;2022-11-13T02:48:05;18.40;;;12.45;;
56712;SDS011;42589;45.536;9.032;2022-11-13T02:51:06;16.05;;;11.55;;
56712;SDS011;42589;45.536;9.032;2022-11-13T02:54:07;17.65;;;12.25;;
56712;SDS011;42589;45.536;9.032;2022-11-13T02:57:07;15.55;;;11.65;;
56712;SDS011;42589;45.536;9.032;2022-11-13T03:00:08;16.48;;;12.05;;
56712;SDS011;42589;45.536;9.032;2022-11-13T03:03:09;15.27;;;12.25;;
56712;SDS011;42589;45.536;9.032;2022-11-13T03:06:10;16.65;;;12.25;;
56712;SDS011;42589;45.536;9.032;2022-11-13T03:09:10;15.90;;;11.93;;
56712;SDS011;42589;45.536;9.032;2022-11-13T03:12:11;17.27;;;11.90;;
56712;SDS011;42589;45.536;9.032;2022-11-13T03:15:16;19.55;;;12.43;;
56712;SDS011;42589;45.536;9.032;2022-11-13T03:18:17;15.43;;;12.55;;
56712;SDS011;42589;45.536;9.032;2022-11-13T03:21:18;17.52;;;12.63;;
56712;SDS011;42589;45.536;9.032;2022-11-13T03:24:18;18.33;;;12.32;;
56712;SDS011;42589;45.536;9.032;2022-11-13T03:27:19;18.48;;;11.88;;
56712;SDS011;42589;45.536;9.032;2022-11-13T03:30:20;16.15;;;12.25;;
56712;SDS011;42589;45.536;9.032;2022-11-13T03:33:21;15.32;;;11.57;;
56712;SDS011;42589;45.536;9.032;2022-11-13T03:36:22;19.15;;;13.07;;
56712;SDS011;42589;45.536;9.032;2022-11-13T03:39:23;15.15;;;11.63;;
56712;SDS011;42589;45.536;9.032;2022-11-13T03:42:23;19.40;;;11.57;;
56712;SDS011;42589;45.536;9.032;2022-11-13T03:45:24;17.25;;;11.48;;
56712;SDS011;42589;45.536;9.032;2022-11-13T03:48:25;16.85;;;11.10;;
56712;SDS011;42589;45.536;9.032;2022-11-13T03:51:26;17.15;;;11.18;;
56712;SDS011;42589;45.536;9.032;2022-11-13T03:54:26;16.48;;;11.98;;
56712;SDS011;42589;45.536;9.032;2022-11-13T03:57:29;15.98;;;11.82;;
56712;SDS011;42589;45.536;9.032;2022-11-13T04:00:31;13.90;;;10.95;;
56712;SDS011;42589;45.536;9.032;2022-11-13T04:03:32;15.95;;;12.10;;
56712;SDS011;42589;45.536;9.032;2022-11-13T04:06:32;15.20;;;11.05;;
56712;SDS011;42589;45.536;9.032;2022-11-13T04:09:33;17.23;;;11.07;;
56712;SDS011;42589;45.536;9.032;2022-11-13T04:12:34;15.35;;;10.82;;
56712;SDS011;42589;45.536;9.032;2022-11-13T04:15:35;15.35;;;10.68;;
56712;SDS011;42589;45.536;9.032;2022-11-13T04:18:36;17.52;;;10.80;;
56712;SDS011;42589;45.536;9.032;2022-11-13T04:21:37;16.13;;;11.10;;
56712;SDS011;42589;45.536;9.032;2022-11-13T04:24:38;14.35;;;10.75;;
56712;SDS011;42589;45.536;9.032;2022-11-13T04:27:39;13.27;;;10.40;;
56712;SDS011;42589;45.536;9.032;2022-11-13T04:30:40;18.02;;;10.85;;
56712;SDS011;42589;45.536;9.032;2022-11-13T04:33:41;14.60;;;10.75;;
56712;SDS011;42589;45.536;9.032;2022-11-13T04:36:42;18.15;;;11.00;;
56712;SDS011;42589;45.536;9.032;2022-11-13T04:39:42;17.77;;;10.35;;
56712;SDS011;42589;45.536;9.032;2022-11-13T04:42:43;12.52;;;10.10;;
56712;SDS011;42589;45.536;9.032;2022-11-13T04:45:51;13.77;;;10.50;;
56712;SDS011;42589;45.536;9.032;2022-11-13T04:48:51;16.33;;;9.70;;
56712;SDS011;42589;45.536;9.032;2022-11-13T04:51:52;14.95;;;9.93;;
56712;SDS011;42589;45.536;9.032;2022-11-13T04:54:53;14.13;;;10.30;;
56712;SDS011;42589;45.536;9.032;2022-11-13T04:57:54;14.55;;;10.20;;
56712;SDS011;42589;45.536;9.032;2022-11-13T05:00:55;12.82;;;9.90;;
56712;SDS011;42589;45.536;9.032;2022-11-13T05:03:55;15.13;;;10.63;;
56712;SDS011;42589;45.536;9.032;2022-11-13T05:06:57;13.40;;;9.70;;
56712;SDS011;42589;45.536;9.032;2022-11-13T05:09:58;15.15;;;9.75;;
56712;SDS011;42589;45.536;9.032;2022-11-13T05:12:58;12.88;;;10.02;;
56712;SDS011;42589;45.536;9.032;2022-11-13T05:16:00;13.55;;;9.93;;
56712;SDS011;42589;45.536;9.032;2022-11-13T05:19:01;14.20;;;10.48;;
56712;SDS011;42589;45.536;9.032;2022-11-13T05:22:05;13.60;;;10.15;;
56712;SDS011;42589;45.536;9.032;2022-11-13T05:25:06;12.65;;;10.10;;
56712;SDS011;42589;45.536;9.032;2022-11-13T05:28:07;15.90;;;10.02;;
56712;SDS011;42589;45.536;9.032;2022-11-13T05:31:12;13.52;;;9.73;;
56712;SDS011;42589;45.536;9.032;2022-11-13T05:34:13;14.77;;;9.32;;
56712;SDS011;42589;45.536;9.032;2022-11-13T05:37:14;11.85;;;9.45;;
56712;SDS011;42589;45.536;9.032;2022-11-13T05:40:16;15.20;;;10.05;;
56712;SDS011;42589;45.536;9.032;2022-11-13T05:43:16;17.27;;;10.13;;
56712;SDS011;42589;45.536;9.032;2022-11-13T05:46:18;14.00;;;10.00;;
56712;SDS011;42589;45.536;9.032;2022-11-13T05:49:19;13.98;;;9.57;;
56712;SDS011;42589;45.536;9.032;2022-11-13T05:52:19;13.75;;;10.15;;
56712;SDS011;42589;45.536;9.032;2022-11-13T05:55:20;16.23;;;10.05;;
56712;SDS011;42589;45.536;9.032;2022-11-13T05:58:24;19.45;;;9.35;;
56712;SDS011;42589;45.536;9.032;2022-11-13T06:01:29;13.88;;;9.82;;
56712;SDS011;42589;45.536;9.032;2022-11-13T06:04:30;13.88;;;9.45;;
56712;SDS011;42589;45.536;9.032;2022-11-13T06:07:30;13.90;;;9.23;;
56712;SDS011;42589;45.536;9.032;2022-11-13T06:10:31;12.27;;;8.80;;
56712;SDS011;42589;45.536;9.032;2022-11-13T06:13:32;12.43;;;8.40;;
56712;SDS011;42589;45.536;9.032;2022-11-13T06:16:34;14.07;;;8.60;;
56712;SDS011;42589;45.536;9.032;2022-11-13T06:19:35;15.13;;;8.68;;
56712;SDS011;42589;45.536;9.032;2022-11-13T06:22:36;11.35;;;8.45;;
56712;SDS011;42589;45.536;9.032;2022-11-13T06:25:37;12.48;;;8.23;;
56712;SDS011;42589;45.536;9.032;2022-11-13T06:28:42;12.48;;;8.73;;
56712;SDS011;42589;45.536;9.032;2022-11-13T06:31:43;10.27;;;7.95;;
56712;SDS011;42589;45.536;9.032;2022-11-13T06:34:44;12.07;;;8.55;;
56712;SDS011;42589;45.536;9.032;2022-11-13T06:37:45;11.60;;;7.50;;
56712;SDS011;42589;45.536;9.032;2022-11-13T06:40:45;13.98;;;8.13;;
56712;SDS011;42589;45.536;9.032;2022-11-13T06:43:46;9.55;;;7.72;;
56712;SDS011;42589;45.536;9.032;2022-11-13T06:46:47;12.48;;;8.15;;
56712;SDS011;42589;45.536;9.032;2022-11-13T06:49:48;11.48;;;8.48;;
56712;SDS011;42589;45.536;9.032;2022-11-13T06:52:50;11.38;;;7.95;;
56712;SDS011;42589;45.536;9.032;2022-11-13T06:55:51;11.77;;;8.30;;
56712;SDS011;42589;45.536;9.032;2022-11-13T06:58:55;11.52;;;8.50;;
56712;SDS011;42589;45.536;9.032;2022-11-13T07:01:55;14.35;;;8.43;;
56712;SDS011;42589;45.536;9.032;2022-11-13T07:04:56;10.18;;;8.15;;
56712;SDS011;42589;45.536;9.032;2022-11-13T07:07:57;11.57;;;8.50;;
56712;SDS011;42589;45.536;9.032;2022-11-13T07:10:58;9.98;;;7.93;;
56712;SDS011;42589;45.536;9.032;2022-11-13T07:13:59;11.00;;;9.02;;
56712;SDS011;42589;45.536;9.032;2022-11-13T07:16:59;12.32;;;9.18;;
56712;SDS011;42589;45.536;9.032;2022-11-13T07:20:00;10.93;;;8.73;;
56712;SDS011;42589;45.536;9.032;2022-11-13T07:23:02;11.25;;;8.52;;
56712;SDS011;42589;45.536;9.032;2022-11-13T07:26:03;10.98;;;8.07;;
56712;SDS011;42589;45.536;9.032;2022-11-13T07:29:03;11.13;;;8.80;;
56712;SDS011;42589;45.536;9.032;2022-11-13T07:32:04;12.45;;;8.80;;
56712;SDS011;42589;45.536;9.032;2022-11-13T07:35:05;14.27;;;8.88;;
56712;SDS011;42589;45.536;9.032;2022-11-13T07:38:06;14.15;;;8.52;;
56712;SDS011;42589;45.536;9.032;2022-11-13T07:41:07;17.83;;;9.00;;
56712;SDS011;42589;45.536;9.032;2022-11-13T07:44:07;13.00;;;9.13;;
56712;SDS011;42589;45.536;9.032;2022-11-13T07:47:09;14.27;;;8.30;;
56712;SDS011;42589;45.536;9.032;2022-11-13T07:50:09;11.75;;;7.97;;
56712;SDS011;42589;45.536;9.032;2022-11-13T07:53:13;12.98;;;8.10;;
56712;SDS011;42589;45.536;9.032;2022-11-13T07:56:13;11.48;;;8.20;;
56712;SDS011;42589;45.536;9.032;2022-11-13T07:59:15;13.02;;;8.63;;
56712;SDS011;42589;45.536;9.032;2022-11-13T08:02:15;12.93;;;8.93;;
56712;SDS011;42589;45.536;9.032;2022-11-13T08:05:22;16.02;;;8.75;;
56712;SDS011;42589;45.536;9.032;2022-11-13T08:08:23;11.75;;;8.77;;
56712;SDS011;42589;45.536;9.032;2022-11-13T08:11:23;11.63;;;8.93;;
56712;SDS011;42589;45.536;9.032;2022-11-13T08:14:24;13.07;;;8.40;;
56712;SDS011;42589;45.536;9.032;2022-11-13T08:17:26;11.63;;;8.15;;
56712;SDS011;42589;45.536;9.032;2022-11-13T08:20:27;12.02;;;7.85;;
56712;SDS011;42589;45.536;9.032;2022-11-13T08:23:28;12.73;;;8.02;;
56712;SDS011;42589;45.536;9.032;2022-11-13T08:26:28;11.65;;;7.57;;
56712;SDS011;42589;45.536;9.032;2022-11-13T08:29:29;12.52;;;8.20;;
56712;SDS011;42589;45.536;9.032;2022-11-13T08:32:29;13.05;;;8.60;;
56712;SDS011;42589;45.536;9.032;2022-11-13T08:35:30;11.52;;;8.13;;
56712;SDS011;42589;45.536;9.032;2022-11-13T08:38:32;12.32;;;8.10;;
56712;SDS011;42589;45.536;9.032;2022-11-13T08:41:32;12.60;;;7.93;;
56712;SDS011;42589;45.536;9.032;2022-11-13T08:44:33;11.35;;;7.93;;
56712;SDS011;42589;45.536;9.032;2022-11-13T08:47:35;11.20;;;8.13;;
56712;SDS011;42589;45.536;9.032;2022-11-13T08:50:35;12.65;;;7.80;;
56712;SDS011;42589;45.536;9.032;2022-11-13T08:53:37;10.88;;;7.97;;
56712;SDS011;42589;45.536;9.032;2022-11-13T08:56:38;10.20;;;7.28;;
56712;SDS011;42589;45.536;9.032;2022-11-13T08:59:39;9.68;;;7.38;;
56712;SDS011;42589;45.536;9.032;2022-11-13T09:02:43;10.73;;;7.70;;
56712;SDS011;42589;45.536;9.032;2022-11-13T09:05:44;11.18;;;7.68;;
56712;SDS011;42589;45.536;9.032;2022-11-13T09:08:45;12.45;;;7.10;;
56712;SDS011;42589;45.536;9.032;2022-11-13T09:11:45;11.95;;;7.43;;
56712;SDS011;42589;45.536;9.032;2022-11-13T09:14:46;11.25;;;7.80;;
56712;SDS011;42589;45.536;9.032;2022-11-13T09:17:47;12.15;;;7.38;;
56712;SDS011;42589;45.536;9.032;2022-11-13T09:20:47;12.45;;;7.95;;
56712;SDS011;42589;45.536;9.032;2022-11-13T09:23:48;9.07;;;6.93;;
56712;SDS011;42589;45.536;9.032;2022-11-13T09:26:49;10.85;;;7.50;;
56712;SDS011;42589;45.536;9.032;2022-11-13T09:29:49;11.50;;;7.93;;
56712;SDS011;42589;45.536;9.032;2022-11-13T09:32:51;12.32;;;7.70;;
56712;SDS011;42589;45.536;9.032;2022-11-13T09:35:55;12.68;;;8.02;;
56712;SDS011;42589;45.536;9.032;2022-11-13T09:38:55;11.57;;;6.82;;
56712;SDS011;42589;45.536;9.032;2022-11-13T09:42:29;9.27;;;6.22;;
56712;SDS011;42589;45.536;9.032;2022-11-13T09:45:22;11.50;;;6.40;;
56712;SDS011;42589;45.536;9.032;2022-11-13T09:48:29;11.57;;;6.50;;
56712;SDS011;42589;45.536;9.032;2022-11-13T09:51:32;11.45;;;6.75;;
56712;SDS011;42589;45.536;9.032;2022-11-13T09:54:35;11.13;;;5.95;;
56712;SDS011;42589;45.536;9.032;2022-11-13T10:00:43;8.70;;;6.15;;
56712;SDS011;42589;45.536;9.032;2022-11-13T10:03:44;9.25;;;5.95;;
56712;SDS011;42589;45.536;9.032;2022-11-13T10:13:09;7.07;;;5.85;;
56712;SDS011;42589;45.536;9.032;2022-11-13T10:20:15;7.28;;;5.15;;
56712;SDS011;42589;45.536;9.032;2022-11-13T10:23:16;7.70;;;5.82;;
56712;SDS011;42589;45.536;9.032;2022-11-13T10:26:18;7.80;;;5.43;;
56712;SDS011;42589;45.536;9.032;2022-11-13T10:29:19;6.82;;;5.20;;
56712;SDS011;42589;45.536;9.032;2022-11-13T10:32:21;11.98;;;6.10;;
56712;SDS011;42589;45.536;9.032;2022-11-13T10:35:51;7.10;;;5.28;;
56712;SDS011;42589;45.536;9.032;2022-11-13T10:38:53;7.90;;;5.90;;
56712;SDS011;42589;45.536;9.032;2022-11-13T10:41:56;7.95;;;5.43;;
56712;SDS011;42589;45.536;9.032;2022-11-13T10:44:58;9.35;;;5.70;;
56712;SDS011;42589;45.536;9.032;2022-11-13T10:47:59;9.52;;;5.68;;
56712;SDS011;42589;45.536;9.032;2022-11-13T10:54:10;9.43;;;5.95;;
56712;SDS011;42589;45.536;9.032;2022-11-13T10:57:30;8.30;;;5.88;;
56712;SDS011;42589;45.536;9.032;2022-11-13T11:00:35;9.07;;;5.65;;
56712;SDS011;42589;45.536;9.032;2022-11-13T11:03:46;9.83;;;5.63;;
56712;SDS011;42589;45.536;9.032;2022-11-13T11:06:48;8.18;;;4.97;;
56712;SDS011;42589;45.536;9.032;2022-11-13T11:09:49;7.07;;;5.05;;
56712;SDS011;42589;45.536;9.032;2022-11-13T11:12:53;7.45;;;4.97;;
56712;SDS011;42589;45.536;9.032;2022-11-13T11:19:00;8.68;;;5.50;;
56712;SDS011;42589;45.536;9.032;2022-11-13T11:22:07;9.00;;;5.45;;
56712;SDS011;42589;45.536;9.032;2022-11-13T11:25:16;10.68;;;5.72;;
56712;SDS011;42589;45.536;9.032;2022-11-13T11:28:42;8.35;;;5.30;;
56712;SDS011;42589;45.536;9.032;2022-11-13T11:31:57;7.38;;;5.18;;
56712;SDS011;42589;45.536;9.032;2022-11-13T11:38:26;7.78;;;5.22;;
56712;SDS011;42589;45.536;9.032;2022-11-13T11:41:30;6.28;;;4.80;;
56712;SDS011;42589;45.536;9.032;2022-11-13T11:44:45;8.63;;;4.72;;
56712;SDS011;42589;45.536;9.032;2022-11-13T11:47:49;6.45;;;5.05;;
56712;SDS011;42589;45.536;9.032;2022-11-13T11:51:02;11.10;;;5.82;;
56712;SDS011;42589;45.536;9.032;2022-11-13T12:00:27;7.57;;;5.07;;
56712;SDS011;42589;45.536;9.032;2022-11-13T12:19:19;7.05;;;4.72;;
56712;SDS011;42589;45.536;9.032;2022-11-13T12:22:35;8.40;;;4.75;;
56712;SDS011;42589;45.536;9.032;2022-11-13T12:25:48;7.75;;;4.80;;
56712;SDS011;42589;45.536;9.032;2022-11-13T12:29:27;9.23;;;5.70;;
56712;SDS011;42589;45.536;9.032;2022-11-13T12:35:40;9.73;;;5.32;;
56712;SDS011;42589;45.536;9.032;2022-11-13T12:38:49;8.13;;;5.43;;
56712;SDS011;42589;45.536;9.032;2022-11-13T12:42:10;9.30;;;5.28;;
56712;SDS011;42589;45.536;9.032;2022-11-13T12:48:26;9.55;;;5.03;;
56712;SDS011;42589;45.536;9.032;2022-11-13T12:51:36;8.68;;;6.25;;
56712;SDS011;42589;45.536;9.032;2022-11-13T12:54:37;6.53;;;5.18;;
56712;SDS011;42589;45.536;9.032;2022-11-13T12:57:45;10.73;;;6.10;;
56712;SDS011;42589;45.536;9.032;2022-11-13T13:01:05;10.40;;;6.30;;
56712;SDS011;42589;45.536;9.032;2022-11-13T13:07:30;10.88;;;6.07;;
56712;SDS011;42589;45.536;9.032;2022-11-13T13:17:30;9.27;;;6.28;;
56712;SDS011;42589;45.536;9.032;2022-11-13T13:20:34;8.75;;;6.03;;
56712;SDS011;42589;45.536;9.032;2022-11-13T13:23:39;8.73;;;6.38;;
56712;SDS011;42589;45.536;9.032;2022-11-13T13:26:44;9.63;;;5.88;;
56712;SDS011;42589;45.536;9.032;2022-11-13T13:29:45;7.32;;;5.40;;
56712;SDS011;42589;45.536;9.032;2022-11-13T13:32:59;7.50;;;5.95;;
56712;SDS011;42589;45.536;9.032;2022-11-13T13:39:17;10.50;;;5.65;;
56712;SDS011;42589;45.536;9.032;2022-11-13T13:48:48;8.30;;;6.00;;
56712;SDS011;42589;45.536;9.032;2022-11-13T13:51:52;10.55;;;6.00;;
56712;SDS011;42589;45.536;9.032;2022-11-13T13:54:54;8.65;;;6.03;;
56712;SDS011;42589;45.536;9.032;2022-11-13T13:57:55;8.32;;;5.65;;
56712;SDS011;42589;45.536;9.032;2022-11-13T14:00:57;8.32;;;5.43;;
56712;SDS011;42589;45.536;9.032;2022-11-13T14:04:20;7.97;;;5.15;;
56712;SDS011;42589;45.536;9.032;2022-11-13T14:07:27;13.63;;;7.15;;
56712;SDS011;42589;45.536;9.032;2022-11-13T14:10:32;8.68;;;6.10;;
56712;SDS011;42589;45.536;9.032;2022-11-13T14:13:33;10.23;;;7.05;;
56712;SDS011;42589;45.536;9.032;2022-11-13T14:16:33;9.15;;;6.10;;
56712;SDS011;42589;45.536;9.032;2022-11-13T14:19:34;10.75;;;6.30;;
56712;SDS011;42589;45.536;9.032;2022-11-13T14:22:35;10.05;;;6.75;;
56712;SDS011;42589;45.536;9.032;2022-11-13T14:25:36;8.85;;;6.15;;
56712;SDS011;42589;45.536;9.032;2022-11-13T14:28:44;12.75;;;6.68;;
56712;SDS011;42589;45.536;9.032;2022-11-13T14:31:45;10.50;;;6.40;;
56712;SDS011;42589;45.536;9.032;2022-11-13T14:34:49;10.90;;;5.97;;
56712;SDS011;42589;45.536;9.032;2022-11-13T14:37:51;11.48;;;6.60;;
56712;SDS011;42589;45.536;9.032;2022-11-13T14:40:52;17.10;;;10.18;;
56712;SDS011;42589;45.536;9.032;2022-11-13T14:43:53;26.20;;;15.18;;
56712;SDS011;42589;45.536;9.032;2022-11-13T14:47:01;14.60;;;9.90;;
56712;SDS011;42589;45.536;9.032;2022-11-13T14:50:08;16.27;;;10.30;;
56712;SDS011;42589;45.536;9.032;2022-11-13T14:53:25;15.18;;;9.85;;
56712;SDS011;42589;45.536;9.032;2022-11-13T14:56:31;15.57;;;8.55;;
56712;SDS011;42589;45.536;9.032;2022-11-13T14:59:31;12.35;;;8.55;;
56712;SDS011;42589;45.536;9.032;2022-11-13T15:02:32;10.57;;;7.72;;
56712;SDS011;42589;45.536;9.032;2022-11-13T15:05:33;11.07;;;8.15;;
56712;SDS011;42589;45.536;9.032;2022-11-13T15:08:34;12.75;;;8.82;;
56712;SDS011;42589;45.536;9.032;2022-11-13T15:11:35;12.93;;;8.55;;
56712;SDS011;42589;45.536;9.032;2022-11-13T15:14:42;11.48;;;8.88;;
56712;SDS011;42589;45.536;9.032;2022-11-13T15:17:46;15.18;;;9.43;;
56712;SDS011;42589;45.536;9.032;2022-11-13T15:20:48;13.43;;;9.00;;
56712;SDS011;42589;45.536;9.032;2022-11-13T15:23:48;11.48;;;8.60;;
56712;SDS011;42589;45.536;9.032;2022-11-13T15:26:49;41.60;;;21.25;;
56712;SDS011;42589;45.536;9.032;2022-11-13T15:29:50;56.78;;;23.02;;
56712;SDS011;42589;45.536;9.032;2022-11-13T15:32:51;22.17;;;13.40;;
56712;SDS011;42589;45.536;9.032;2022-11-13T15:35:53;15.07;;;10.50;;
56712;SDS011;42589;45.536;9.032;2022-11-13T15:38:53;18.10;;;13.52;;
56712;SDS011;42589;45.536;9.032;2022-11-13T15:41:54;16.88;;;11.57;;
56712;SDS011;42589;45.536;9.032;2022-11-13T15:44:55;15.95;;;11.20;;
56712;SDS011;42589;45.536;9.032;2022-11-13T15:47:55;13.57;;;10.07;;
56712;SDS011;42589;45.536;9.032;2022-11-13T15:50:56;15.20;;;10.55;;
56712;SDS011;42589;45.536;9.032;2022-11-13T15:54:30;14.48;;;9.77;;
56712;SDS011;42589;45.536;9.032;2022-11-13T15:57:24;17.55;;;10.48;;
56712;SDS011;42589;45.536;9.032;2022-11-13T16:00:26;13.98;;;10.02;;
56712;SDS011;42589;45.536;9.032;2022-11-13T16:03:26;14.82;;;10.10;;
56712;SDS011;42589;45.536;9.032;2022-11-13T16:06:27;19.40;;;12.82;;
56712;SDS011;42589;45.536;9.032;2022-11-13T16:09:29;21.02;;;13.48;;
56712;SDS011;42589;45.536;9.032;2022-11-13T16:12:30;20.92;;;12.90;;
56712;SDS011;42589;45.536;9.032;2022-11-13T16:15:31;18.92;;;12.27;;
56712;SDS011;42589;45.536;9.032;2022-11-13T16:18:31;19.73;;;13.10;;
56712;SDS011;42589;45.536;9.032;2022-11-13T16:21:33;18.77;;;11.73;;
56712;SDS011;42589;45.536;9.032;2022-11-13T16:24:33;17.65;;;11.93;;
56712;SDS011;42589;45.536;9.032;2022-11-13T16:27:35;20.23;;;12.43;;
56712;SDS011;42589;45.536;9.032;2022-11-13T16:30:35;18.27;;;12.68;;
56712;SDS011;42589;45.536;9.032;2022-11-13T16:33:36;17.80;;;12.35;;
56712;SDS011;42589;45.536;9.032;2022-11-13T16:36:37;18.27;;;11.80;;
56712;SDS011;42589;45.536;9.032;2022-11-13T16:39:37;22.00;;;12.07;;
56712;SDS011;42589;45.536;9.032;2022-11-13T16:42:38;18.15;;;12.60;;
56712;SDS011;42589;45.536;9.032;2022-11-13T16:45:38;18.88;;;12.50;;
56712;SDS011;42589;45.536;9.032;2022-11-13T16:48:39;16.27;;;12.52;;
56712;SDS011;42589;45.536;9.032;2022-11-13T16:51:40;23.17;;;12.85;;
56712;SDS011;42589;45.536;9.032;2022-11-13T16:54:41;20.55;;;13.07;;
56712;SDS011;42589;45.536;9.032;2022-11-13T16:57:42;17.15;;;12.18;;
56712;SDS011;42589;45.536;9.032;2022-11-13T17:00:43;19.35;;;12.73;;
56712;SDS011;42589;45.536;9.032;2022-11-13T17:03:44;18.63;;;12.02;;
56712;SDS011;42589;45.536;9.032;2022-11-13T17:06:45;19.67;;;13.23;;
56712;SDS011;42589;45.536;9.032;2022-11-13T17:09:46;22.33;;;13.82;;
56712;SDS011;42589;45.536;9.032;2022-11-13T17:12:53;17.63;;;13.60;;
56712;SDS011;42589;45.536;9.032;2022-11-13T17:15:53;21.23;;;13.98;;
56712;SDS011;42589;45.536;9.032;2022-11-13T17:18:54;22.33;;;14.60;;
56712;SDS011;42589;45.536;9.032;2022-11-13T17:21:58;21.90;;;14.25;;
56712;SDS011;42589;45.536;9.032;2022-11-13T17:24:58;20.10;;;14.07;;
56712;SDS011;42589;45.536;9.032;2022-11-13T17:28:00;22.17;;;13.85;;
56712;SDS011;42589;45.536;9.032;2022-11-13T17:31:01;18.60;;;13.50;;
56712;SDS011;42589;45.536;9.032;2022-11-13T17:34:04;22.52;;;13.68;;
56712;SDS011;42589;45.536;9.032;2022-11-13T17:37:05;22.60;;;13.70;;
56712;SDS011;42589;45.536;9.032;2022-11-13T17:40:06;21.77;;;14.10;;
56712;SDS011;42589;45.536;9.032;2022-11-13T17:43:07;19.27;;;14.52;;
56712;SDS011;42589;45.536;9.032;2022-11-13T17:46:09;21.92;;;14.82;;
56712;SDS011;42589;45.536;9.032;2022-11-13T17:49:10;24.92;;;15.02;;
56712;SDS011;42589;45.536;9.032;2022-11-13T17:52:11;21.77;;;15.20;;
56712;SDS011;42589;45.536;9.032;2022-11-13T17:55:12;22.95;;;14.00;;
56712;SDS011;42589;45.536;9.032;2022-11-13T17:58:13;18.77;;;14.07;;
56712;SDS011;42589;45.536;9.032;2022-11-13T18:01:17;21.38;;;14.70;;
56712;SDS011;42589;45.536;9.032;2022-11-13T18:04:21;25.10;;;15.73;;
56712;SDS011;42589;45.536;9.032;2022-11-13T18:07:22;24.25;;;16.08;;
56712;SDS011;42589;45.536;9.032;2022-11-13T18:10:22;24.70;;;17.10;;
56712;SDS011;42589;45.536;9.032;2022-11-13T18:13:23;22.25;;;15.90;;
56712;SDS011;42589;45.536;9.032;2022-11-13T18:16:25;24.48;;;17.25;;
56712;SDS011;42589;45.536;9.032;2022-11-13T18:19:26;26.25;;;17.08;;
56712;SDS011;42589;45.536;9.032;2022-11-13T18:22:26;27.55;;;17.08;;
56712;SDS011;42589;45.536;9.032;2022-11-13T18:25:27;28.38;;;18.10;;
56712;SDS011;42589;45.536;9.032;2022-11-13T18:28:28;31.83;;;18.45;;
56712;SDS011;42589;45.536;9.032;2022-11-13T18:31:29;27.90;;;19.05;;
56712;SDS011;42589;45.536;9.032;2022-11-13T18:34:29;28.75;;;17.85;;
56712;SDS011;42589;45.536;9.032;2022-11-13T18:37:30;26.63;;;18.15;;
56712;SDS011;42589;45.536;9.032;2022-11-13T18:40:30;26.48;;;19.05;;
56712;SDS011;42589;45.536;9.032;2022-11-13T18:43:31;30.80;;;18.60;;
56712;SDS011;42589;45.536;9.032;2022-11-13T18:46:32;25.92;;;17.98;;
56712;SDS011;42589;45.536;9.032;2022-11-13T18:49:33;25.40;;;17.17;;
56712;SDS011;42589;45.536;9.032;2022-11-13T18:52:34;27.83;;;17.17;;
56712;SDS011;42589;45.536;9.032;2022-11-13T18:55:34;27.85;;;17.77;;
56712;SDS011;42589;45.536;9.032;2022-11-13T18:58:36;28.73;;;18.33;;
56712;SDS011;42589;45.536;9.032;2022-11-13T19:01:37;25.35;;;17.08;;
56712;SDS011;42589;45.536;9.032;2022-11-13T19:04:38;28.80;;;18.10;;
56712;SDS011;42589;45.536;9.032;2022-11-13T19:07:39;25.40;;;17.42;;
56712;SDS011;42589;45.536;9.032;2022-11-13T19:10:40;27.90;;;18.10;;